sensor_id;sensor_type;location;lat;lon;timestamp;P1;durP1;ratioP1;P2;durP2;ratioP2
80249;SDS011;69561;37.974;23.708;2023-04-25T00:01:48;6.20;;;2.97;;
80249;SDS011;69561;37.974;23.708;2023-04-25T00:04:13;5.45;;;2.85;;
80249;SDS011;69561;37.974;23.708;2023-04-25T00:06:39;4.82;;;3.00;;
80249;SDS011;69561;37.974;23.708;2023-04-25T00:09:05;5.07;;;2.88;;
80249;SDS011;69561;37.974;23.708;2023-04-25T00:11:35;4.18;;;3.17;;
80249;SDS011;69561;37.974;23.708;2023-04-25T00:14:03;4.60;;;2.88;;
80249;SDS011;69561;37.974;23.708;2023-04-25T00:16:29;3.90;;;2.65;;
80249;SDS011;69561;37.974;23.708;2023-04-25T00:18:58;3.97;;;2.70;;
80249;SDS011;69561;37.974;23.708;2023-04-25T00:21:24;4.03;;;2.88;;
80249;SDS011;69561;37.974;23.708;2023-04-25T00:23:52;4.47;;;2.80;;
80249;SDS011;69561;37.974;23.708;2023-04-25T00:26:18;5.20;;;2.75;;
80249;SDS011;69561;37.974;23.708;2023-04-25T00:28:45;4.72;;;2.58;;
80249;SDS011;69561;37.974;23.708;2023-04-25T00:31:12;5.05;;;2.90;;
80249;SDS011;69561;37.974;23.708;2023-04-25T00:33:37;3.30;;;2.50;;
80249;SDS011;69561;37.974;23.708;2023-04-25T00:36:03;4.68;;;2.78;;
80249;SDS011;69561;37.974;23.708;2023-04-25T00:38:29;4.68;;;2.95;;
80249;SDS011;69561;37.974;23.708;2023-04-25T00:40:55;4.20;;;2.60;;
80249;SDS011;69561;37.974;23.708;2023-04-25T00:43:21;3.50;;;2.78;;
80249;SDS011;69561;37.974;23.708;2023-04-25T00:45:47;4.72;;;2.65;;
80249;SDS011;69561;37.974;23.708;2023-04-25T00:48:14;4.03;;;2.40;;
80249;SDS011;69561;37.974;23.708;2023-04-25T00:50:40;4.60;;;2.72;;
80249;SDS011;69561;37.974;23.708;2023-04-25T00:53:06;4.35;;;2.92;;
80249;SDS011;69561;37.974;23.708;2023-04-25T00:55:32;4.18;;;2.80;;
80249;SDS011;69561;37.974;23.708;2023-04-25T00:57:59;5.85;;;2.90;;
80249;SDS011;69561;37.974;23.708;2023-04-25T01:00:25;4.18;;;2.63;;
80249;SDS011;69561;37.974;23.708;2023-04-25T01:02:51;4.15;;;2.47;;
80249;SDS011;69561;37.974;23.708;2023-04-25T01:05:17;3.42;;;2.55;;
80249;SDS011;69561;37.974;23.708;2023-04-25T01:07:44;4.40;;;2.70;;
80249;SDS011;69561;37.974;23.708;2023-04-25T01:10:10;6.32;;;2.58;;
80249;SDS011;69561;37.974;23.708;2023-04-25T01:12:36;4.85;;;2.42;;
80249;SDS011;69561;37.974;23.708;2023-04-25T01:15:02;4.50;;;2.58;;
80249;SDS011;69561;37.974;23.708;2023-04-25T01:17:28;6.00;;;2.63;;
80249;SDS011;69561;37.974;23.708;2023-04-25T01:19:54;4.88;;;2.47;;
80249;SDS011;69561;37.974;23.708;2023-04-25T01:22:20;5.88;;;2.55;;
80249;SDS011;69561;37.974;23.708;2023-04-25T01:24:46;5.53;;;2.65;;
80249;SDS011;69561;37.974;23.708;2023-04-25T01:27:12;4.55;;;2.50;;
80249;SDS011;69561;37.974;23.708;2023-04-25T01:29:38;3.70;;;2.50;;
80249;SDS011;69561;37.974;23.708;2023-04-25T01:32:04;4.32;;;2.50;;
80249;SDS011;69561;37.974;23.708;2023-04-25T01:34:31;4.00;;;2.80;;
80249;SDS011;69561;37.974;23.708;2023-04-25T01:36:56;4.35;;;2.60;;
80249;SDS011;69561;37.974;23.708;2023-04-25T01:39:26;5.15;;;2.50;;
80249;SDS011;69561;37.974;23.708;2023-04-25T01:41:52;3.65;;;2.40;;
80249;SDS011;69561;37.974;23.708;2023-04-25T01:44:18;3.65;;;2.28;;
80249;SDS011;69561;37.974;23.708;2023-04-25T01:46:44;5.18;;;2.60;;
80249;SDS011;69561;37.974;23.708;2023-04-25T01:49:09;2.92;;;2.50;;
80249;SDS011;69561;37.974;23.708;2023-04-25T01:51:35;3.20;;;2.30;;
80249;SDS011;69561;37.974;23.708;2023-04-25T01:54:01;4.95;;;2.80;;
80249;SDS011;69561;37.974;23.708;2023-04-25T01:56:31;5.90;;;2.78;;
80249;SDS011;69561;37.974;23.708;2023-04-25T01:58:58;4.47;;;2.40;;
80249;SDS011;69561;37.974;23.708;2023-04-25T02:01:24;3.60;;;2.42;;
80249;SDS011;69561;37.974;23.708;2023-04-25T02:03:50;3.10;;;2.40;;
80249;SDS011;69561;37.974;23.708;2023-04-25T02:06:15;4.50;;;2.38;;
80249;SDS011;69561;37.974;23.708;2023-04-25T02:08:41;4.90;;;2.72;;
80249;SDS011;69561;37.974;23.708;2023-04-25T02:11:07;4.18;;;2.15;;
80249;SDS011;69561;37.974;23.708;2023-04-25T02:13:32;4.03;;;2.80;;
80249;SDS011;69561;37.974;23.708;2023-04-25T02:15:58;3.67;;;2.60;;
80249;SDS011;69561;37.974;23.708;2023-04-25T02:18:24;5.85;;;2.67;;
80249;SDS011;69561;37.974;23.708;2023-04-25T02:20:51;5.47;;;2.60;;
80249;SDS011;69561;37.974;23.708;2023-04-25T02:23:17;4.68;;;2.33;;
80249;SDS011;69561;37.974;23.708;2023-04-25T02:25:44;4.95;;;2.58;;
80249;SDS011;69561;37.974;23.708;2023-04-25T02:28:09;4.55;;;2.88;;
80249;SDS011;69561;37.974;23.708;2023-04-25T02:30:35;4.95;;;2.67;;
80249;SDS011;69561;37.974;23.708;2023-04-25T02:33:01;5.10;;;2.53;;
80249;SDS011;69561;37.974;23.708;2023-04-25T02:35:27;3.53;;;2.78;;
80249;SDS011;69561;37.974;23.708;2023-04-25T02:37:53;4.15;;;2.63;;
80249;SDS011;69561;37.974;23.708;2023-04-25T02:40:18;3.38;;;2.30;;
80249;SDS011;69561;37.974;23.708;2023-04-25T02:42:44;4.47;;;2.67;;
80249;SDS011;69561;37.974;23.708;2023-04-25T02:45:11;7.63;;;2.72;;
80249;SDS011;69561;37.974;23.708;2023-04-25T02:47:36;5.53;;;2.55;;
80249;SDS011;69561;37.974;23.708;2023-04-25T02:50:02;5.45;;;2.60;;
80249;SDS011;69561;37.974;23.708;2023-04-25T02:52:28;5.95;;;2.65;;
80249;SDS011;69561;37.974;23.708;2023-04-25T02:54:54;5.80;;;2.60;;
80249;SDS011;69561;37.974;23.708;2023-04-25T02:57:20;5.70;;;2.72;;
80249;SDS011;69561;37.974;23.708;2023-04-25T02:59:46;7.57;;;2.45;;
80249;SDS011;69561;37.974;23.708;2023-04-25T03:02:11;5.00;;;2.63;;
80249;SDS011;69561;37.974;23.708;2023-04-25T03:04:37;4.93;;;2.60;;
80249;SDS011;69561;37.974;23.708;2023-04-25T03:07:03;6.38;;;2.60;;
80249;SDS011;69561;37.974;23.708;2023-04-25T03:09:29;4.20;;;2.55;;
80249;SDS011;69561;37.974;23.708;2023-04-25T03:11:55;4.38;;;3.05;;
80249;SDS011;69561;37.974;23.708;2023-04-25T03:14:20;4.82;;;2.55;;
80249;SDS011;69561;37.974;23.708;2023-04-25T03:16:46;5.65;;;2.90;;
80249;SDS011;69561;37.974;23.708;2023-04-25T03:19:12;4.97;;;3.05;;
80249;SDS011;69561;37.974;23.708;2023-04-25T03:21:40;4.53;;;3.10;;
80249;SDS011;69561;37.974;23.708;2023-04-25T03:24:06;5.10;;;2.33;;
80249;SDS011;69561;37.974;23.708;2023-04-25T03:26:32;5.55;;;2.92;;
80249;SDS011;69561;37.974;23.708;2023-04-25T03:28:58;6.10;;;2.50;;
80249;SDS011;69561;37.974;23.708;2023-04-25T03:31:23;7.22;;;2.60;;
80249;SDS011;69561;37.974;23.708;2023-04-25T03:33:49;9.57;;;2.53;;
80249;SDS011;69561;37.974;23.708;2023-04-25T03:36:15;6.70;;;2.70;;
80249;SDS011;69561;37.974;23.708;2023-04-25T03:38:41;4.50;;;2.75;;
80249;SDS011;69561;37.974;23.708;2023-04-25T03:41:07;5.68;;;2.92;;
80249;SDS011;69561;37.974;23.708;2023-04-25T03:43:33;5.45;;;2.88;;
80249;SDS011;69561;37.974;23.708;2023-04-25T03:45:58;9.05;;;2.75;;
80249;SDS011;69561;37.974;23.708;2023-04-25T03:48:25;8.48;;;2.75;;
80249;SDS011;69561;37.974;23.708;2023-04-25T03:50:51;9.73;;;3.17;;
80249;SDS011;69561;37.974;23.708;2023-04-25T03:53:17;8.40;;;3.13;;
80249;SDS011;69561;37.974;23.708;2023-04-25T03:55:43;5.28;;;3.03;;
80249;SDS011;69561;37.974;23.708;2023-04-25T03:58:09;11.20;;;3.38;;
80249;SDS011;69561;37.974;23.708;2023-04-25T04:00:35;7.03;;;2.60;;
80249;SDS011;69561;37.974;23.708;2023-04-25T04:03:01;8.38;;;3.05;;
80249;SDS011;69561;37.974;23.708;2023-04-25T04:05:27;12.30;;;2.90;;
80249;SDS011;69561;37.974;23.708;2023-04-25T04:07:53;5.90;;;2.80;;
80249;SDS011;69561;37.974;23.708;2023-04-25T04:10:19;8.65;;;2.70;;
80249;SDS011;69561;37.974;23.708;2023-04-25T04:12:45;13.00;;;3.05;;
80249;SDS011;69561;37.974;23.708;2023-04-25T04:15:11;12.57;;;3.15;;
80249;SDS011;69561;37.974;23.708;2023-04-25T04:17:37;21.75;;;3.90;;
80249;SDS011;69561;37.974;23.708;2023-04-25T04:20:03;23.50;;;4.00;;
80249;SDS011;69561;37.974;23.708;2023-04-25T04:22:30;23.98;;;3.42;;
80249;SDS011;69561;37.974;23.708;2023-04-25T04:24:56;39.63;;;3.50;;
80249;SDS011;69561;37.974;23.708;2023-04-25T04:27:22;20.20;;;3.40;;
80249;SDS011;69561;37.974;23.708;2023-04-25T04:29:48;22.48;;;3.25;;
80249;SDS011;69561;37.974;23.708;2023-04-25T04:32:15;33.75;;;4.13;;
80249;SDS011;69561;37.974;23.708;2023-04-25T04:34:42;21.88;;;4.20;;
80249;SDS011;69561;37.974;23.708;2023-04-25T04:37:08;17.95;;;3.22;;
80249;SDS011;69561;37.974;23.708;2023-04-25T04:39:34;22.27;;;3.35;;
80249;SDS011;69561;37.974;23.708;2023-04-25T04:42:01;14.48;;;3.58;;
80249;SDS011;69561;37.974;23.708;2023-04-25T04:44:26;13.32;;;2.90;;
80249;SDS011;69561;37.974;23.708;2023-04-25T04:46:53;8.10;;;3.40;;
80249;SDS011;69561;37.974;23.708;2023-04-25T04:49:19;15.70;;;3.40;;
80249;SDS011;69561;37.974;23.708;2023-04-25T04:51:45;13.57;;;3.03;;
80249;SDS011;69561;37.974;23.708;2023-04-25T04:54:12;13.32;;;3.33;;
80249;SDS011;69561;37.974;23.708;2023-04-25T04:56:38;15.18;;;2.92;;
80249;SDS011;69561;37.974;23.708;2023-04-25T04:59:03;10.00;;;3.10;;
80249;SDS011;69561;37.974;23.708;2023-04-25T05:01:29;9.85;;;2.58;;
80249;SDS011;69561;37.974;23.708;2023-04-25T05:03:55;9.93;;;3.20;;
80249;SDS011;69561;37.974;23.708;2023-04-25T05:06:25;13.20;;;2.92;;
80249;SDS011;69561;37.974;23.708;2023-04-25T05:08:52;12.48;;;2.92;;
80249;SDS011;69561;37.974;23.708;2023-04-25T05:11:18;15.85;;;2.92;;
80249;SDS011;69561;37.974;23.708;2023-04-25T05:13:44;9.05;;;3.15;;
80249;SDS011;69561;37.974;23.708;2023-04-25T05:16:10;8.95;;;3.28;;
80249;SDS011;69561;37.974;23.708;2023-04-25T05:18:37;5.15;;;2.75;;
80249;SDS011;69561;37.974;23.708;2023-04-25T05:21:02;10.98;;;3.65;;
80249;SDS011;69561;37.974;23.708;2023-04-25T05:23:28;9.73;;;3.35;;
80249;SDS011;69561;37.974;23.708;2023-04-25T05:25:55;13.48;;;3.70;;
80249;SDS011;69561;37.974;23.708;2023-04-25T05:28:21;6.88;;;3.20;;
80249;SDS011;69561;37.974;23.708;2023-04-25T05:30:47;8.02;;;3.20;;
80249;SDS011;69561;37.974;23.708;2023-04-25T05:33:13;5.47;;;3.00;;
80249;SDS011;69561;37.974;23.708;2023-04-25T05:35:39;6.30;;;2.90;;
80249;SDS011;69561;37.974;23.708;2023-04-25T05:38:05;3.40;;;2.67;;
80249;SDS011;69561;37.974;23.708;2023-04-25T05:40:31;8.02;;;3.05;;
80249;SDS011;69561;37.974;23.708;2023-04-25T05:42:57;3.85;;;2.60;;
80249;SDS011;69561;37.974;23.708;2023-04-25T05:45:22;4.30;;;2.50;;
80249;SDS011;69561;37.974;23.708;2023-04-25T05:47:48;7.03;;;2.65;;
80249;SDS011;69561;37.974;23.708;2023-04-25T05:50:14;3.72;;;2.58;;
80249;SDS011;69561;37.974;23.708;2023-04-25T05:52:39;4.57;;;2.58;;
80249;SDS011;69561;37.974;23.708;2023-04-25T05:55:05;5.28;;;2.58;;
80249;SDS011;69561;37.974;23.708;2023-04-25T05:57:31;5.90;;;2.60;;
80249;SDS011;69561;37.974;23.708;2023-04-25T05:59:57;4.53;;;2.22;;
80249;SDS011;69561;37.974;23.708;2023-04-25T06:02:22;4.47;;;2.08;;
80249;SDS011;69561;37.974;23.708;2023-04-25T06:04:51;5.90;;;1.90;;
80249;SDS011;69561;37.974;23.708;2023-04-25T06:07:17;3.60;;;2.00;;
80249;SDS011;69561;37.974;23.708;2023-04-25T06:09:43;4.05;;;1.90;;
80249;SDS011;69561;37.974;23.708;2023-04-25T06:12:09;2.22;;;1.63;;
80249;SDS011;69561;37.974;23.708;2023-04-25T06:14:35;3.67;;;1.67;;
80249;SDS011;69561;37.974;23.708;2023-04-25T06:17:02;4.43;;;1.70;;
80249;SDS011;69561;37.974;23.708;2023-04-25T06:19:35;3.45;;;1.45;;
80249;SDS011;69561;37.974;23.708;2023-04-25T06:22:01;2.22;;;1.30;;
80249;SDS011;69561;37.974;23.708;2023-04-25T06:24:27;5.13;;;1.52;;
80249;SDS011;69561;37.974;23.708;2023-04-25T06:26:53;2.25;;;1.42;;
80249;SDS011;69561;37.974;23.708;2023-04-25T06:29:19;4.35;;;1.30;;
80249;SDS011;69561;37.974;23.708;2023-04-25T06:31:45;2.67;;;1.70;;
80249;SDS011;69561;37.974;23.708;2023-04-25T06:34:12;3.80;;;1.30;;
80249;SDS011;69561;37.974;23.708;2023-04-25T06:36:37;2.53;;;1.23;;
80249;SDS011;69561;37.974;23.708;2023-04-25T06:39:03;5.65;;;1.20;;
80249;SDS011;69561;37.974;23.708;2023-04-25T06:41:29;4.15;;;1.20;;
80249;SDS011;69561;37.974;23.708;2023-04-25T06:43:55;2.28;;;1.02;;
80249;SDS011;69561;37.974;23.708;2023-04-25T06:46:21;1.33;;;1.17;;
80249;SDS011;69561;37.974;23.708;2023-04-25T06:48:46;2.60;;;1.33;;
80249;SDS011;69561;37.974;23.708;2023-04-25T06:51:12;4.63;;;1.42;;
80249;SDS011;69561;37.974;23.708;2023-04-25T06:53:38;3.45;;;1.10;;
80249;SDS011;69561;37.974;23.708;2023-04-25T06:56:05;1.58;;;1.00;;
80249;SDS011;69561;37.974;23.708;2023-04-25T06:58:31;2.25;;;1.00;;
80249;SDS011;69561;37.974;23.708;2023-04-25T07:00:57;2.95;;;1.10;;
80249;SDS011;69561;37.974;23.708;2023-04-25T07:03:22;2.53;;;1.23;;
80249;SDS011;69561;37.974;23.708;2023-04-25T07:05:49;3.80;;;1.70;;
80249;SDS011;69561;37.974;23.708;2023-04-25T07:08:15;2.53;;;1.65;;
80249;SDS011;69561;37.974;23.708;2023-04-25T07:10:41;3.80;;;1.70;;
80249;SDS011;69561;37.974;23.708;2023-04-25T07:13:07;4.07;;;1.60;;
80249;SDS011;69561;37.974;23.708;2023-04-25T07:15:33;2.80;;;1.58;;
80249;SDS011;69561;37.974;23.708;2023-04-25T07:17:59;4.20;;;2.03;;
80249;SDS011;69561;37.974;23.708;2023-04-25T07:20:25;7.18;;;1.55;;
80249;SDS011;69561;37.974;23.708;2023-04-25T07:22:53;4.82;;;1.40;;
80249;SDS011;69561;37.974;23.708;2023-04-25T07:25:19;4.45;;;1.45;;
80249;SDS011;69561;37.974;23.708;2023-04-25T07:27:45;2.78;;;1.30;;
80249;SDS011;69561;37.974;23.708;2023-04-25T07:30:11;2.97;;;1.60;;
80249;SDS011;69561;37.974;23.708;2023-04-25T07:32:37;2.40;;;1.33;;
80249;SDS011;69561;37.974;23.708;2023-04-25T07:35:03;2.70;;;1.40;;
80249;SDS011;69561;37.974;23.708;2023-04-25T07:37:29;2.75;;;1.30;;
80249;SDS011;69561;37.974;23.708;2023-04-25T07:39:55;2.28;;;1.30;;
80249;SDS011;69561;37.974;23.708;2023-04-25T07:42:21;4.20;;;1.30;;
80249;SDS011;69561;37.974;23.708;2023-04-25T07:44:46;2.28;;;1.23;;
80249;SDS011;69561;37.974;23.708;2023-04-25T07:47:12;1.83;;;1.10;;
80249;SDS011;69561;37.974;23.708;2023-04-25T07:49:38;2.95;;;1.30;;
80249;SDS011;69561;37.974;23.708;2023-04-25T07:52:05;2.38;;;1.40;;
80249;SDS011;69561;37.974;23.708;2023-04-25T07:54:31;2.38;;;1.13;;
80249;SDS011;69561;37.974;23.708;2023-04-25T07:56:57;2.35;;;1.38;;
80249;SDS011;69561;37.974;23.708;2023-04-25T07:59:23;2.38;;;1.27;;
80249;SDS011;69561;37.974;23.708;2023-04-25T08:01:49;3.25;;;1.20;;
80249;SDS011;69561;37.974;23.708;2023-04-25T08:04:15;1.10;;;0.98;;
80249;SDS011;69561;37.974;23.708;2023-04-25T08:06:41;2.55;;;1.10;;
80249;SDS011;69561;37.974;23.708;2023-04-25T08:09:08;2.85;;;1.15;;
80249;SDS011;69561;37.974;23.708;2023-04-25T08:11:34;2.28;;;1.20;;
80249;SDS011;69561;37.974;23.708;2023-04-25T08:14:01;1.35;;;1.00;;
80249;SDS011;69561;37.974;23.708;2023-04-25T08:16:27;1.35;;;1.00;;
80249;SDS011;69561;37.974;23.708;2023-04-25T08:18:53;3.30;;;1.30;;
80249;SDS011;69561;37.974;23.708;2023-04-25T08:21:18;4.43;;;1.17;;
80249;SDS011;69561;37.974;23.708;2023-04-25T08:23:45;2.13;;;0.95;;
80249;SDS011;69561;37.974;23.708;2023-04-25T08:26:11;3.42;;;1.10;;
80249;SDS011;69561;37.974;23.708;2023-04-25T08:28:36;2.25;;;1.20;;
80249;SDS011;69561;37.974;23.708;2023-04-25T08:31:02;1.77;;;1.00;;
80249;SDS011;69561;37.974;23.708;2023-04-25T08:33:28;3.97;;;1.45;;
80249;SDS011;69561;37.974;23.708;2023-04-25T08:35:55;4.30;;;1.10;;
80249;SDS011;69561;37.974;23.708;2023-04-25T08:38:20;2.17;;;1.20;;
80249;SDS011;69561;37.974;23.708;2023-04-25T08:40:48;1.83;;;1.10;;
80249;SDS011;69561;37.974;23.708;2023-04-25T08:43:17;1.70;;;1.13;;
80249;SDS011;69561;37.974;23.708;2023-04-25T08:45:43;1.23;;;1.00;;
80249;SDS011;69561;37.974;23.708;2023-04-25T08:48:11;4.90;;;1.35;;
80249;SDS011;69561;37.974;23.708;2023-04-25T08:50:51;0.85;;;0.80;;
80249;SDS011;69561;37.974;23.708;2023-04-25T08:53:21;3.28;;;1.20;;
80249;SDS011;69561;37.974;23.708;2023-04-25T08:55:50;2.35;;;0.93;;
80249;SDS011;69561;37.974;23.708;2023-04-25T08:58:18;3.28;;;0.98;;
80249;SDS011;69561;37.974;23.708;2023-04-25T09:00:45;1.98;;;1.00;;
80249;SDS011;69561;37.974;23.708;2023-04-25T09:03:14;2.85;;;0.90;;
80249;SDS011;69561;37.974;23.708;2023-04-25T09:05:41;3.03;;;0.90;;
80249;SDS011;69561;37.974;23.708;2023-04-25T09:08:07;2.13;;;1.00;;
80249;SDS011;69561;37.974;23.708;2023-04-25T09:10:33;0.93;;;0.85;;
80249;SDS011;69561;37.974;23.708;2023-04-25T09:15:50;4.97;;;1.10;;
80249;SDS011;69561;37.974;23.708;2023-04-25T09:18:27;3.70;;;0.95;;
80249;SDS011;69561;37.974;23.708;2023-04-25T09:21:08;1.20;;;1.00;;
80249;SDS011;69561;37.974;23.708;2023-04-25T09:23:45;1.65;;;1.27;;
80249;SDS011;69561;37.974;23.708;2023-04-25T09:26:16;1.20;;;0.95;;
80249;SDS011;69561;37.974;23.708;2023-04-25T09:28:43;1.58;;;1.00;;
80249;SDS011;69561;37.974;23.708;2023-04-25T09:31:11;2.88;;;1.10;;
80249;SDS011;69561;37.974;23.708;2023-04-25T09:33:37;1.40;;;1.17;;
80249;SDS011;69561;37.974;23.708;2023-04-25T09:38:42;1.70;;;1.00;;
80249;SDS011;69561;37.974;23.708;2023-04-25T09:41:09;2.70;;;1.40;;
80249;SDS011;69561;37.974;23.708;2023-04-25T09:43:37;3.35;;;1.20;;
80249;SDS011;69561;37.974;23.708;2023-04-25T09:46:08;4.10;;;1.23;;
80249;SDS011;69561;37.974;23.708;2023-04-25T09:48:37;6.82;;;1.40;;
80249;SDS011;69561;37.974;23.708;2023-04-25T09:53:44;1.50;;;1.23;;
80249;SDS011;69561;37.974;23.708;2023-04-25T09:56:11;3.03;;;1.10;;
80249;SDS011;69561;37.974;23.708;2023-04-25T09:58:39;3.42;;;1.10;;
80249;SDS011;69561;37.974;23.708;2023-04-25T10:01:09;3.60;;;1.40;;
80249;SDS011;69561;37.974;23.708;2023-04-25T10:03:36;6.72;;;1.33;;
80249;SDS011;69561;37.974;23.708;2023-04-25T10:06:13;2.97;;;1.20;;
80249;SDS011;69561;37.974;23.708;2023-04-25T10:08:43;2.55;;;1.30;;
80249;SDS011;69561;37.974;23.708;2023-04-25T10:11:10;2.03;;;1.20;;
80249;SDS011;69561;37.974;23.708;2023-04-25T10:13:39;1.33;;;1.15;;
80249;SDS011;69561;37.974;23.708;2023-04-25T10:16:06;1.58;;;1.10;;
80249;SDS011;69561;37.974;23.708;2023-04-25T10:18:32;3.22;;;1.30;;
80249;SDS011;69561;37.974;23.708;2023-04-25T10:20:59;1.58;;;1.15;;
80249;SDS011;69561;37.974;23.708;2023-04-25T10:23:26;3.83;;;1.20;;
80249;SDS011;69561;37.974;23.708;2023-04-25T10:25:54;3.35;;;1.08;;
80249;SDS011;69561;37.974;23.708;2023-04-25T10:28:20;2.33;;;1.10;;
80249;SDS011;69561;37.974;23.708;2023-04-25T10:31:02;2.63;;;1.25;;
80249;SDS011;69561;37.974;23.708;2023-04-25T10:33:32;1.88;;;1.15;;
80249;SDS011;69561;37.974;23.708;2023-04-25T10:36:11;3.00;;;1.25;;
80249;SDS011;69561;37.974;23.708;2023-04-25T10:38:39;2.45;;;1.23;;
80249;SDS011;69561;37.974;23.708;2023-04-25T10:41:06;2.85;;;1.40;;
80249;SDS011;69561;37.974;23.708;2023-04-25T10:46:03;2.13;;;1.40;;
80249;SDS011;69561;37.974;23.708;2023-04-25T10:48:55;3.17;;;1.30;;
80249;SDS011;69561;37.974;23.708;2023-04-25T10:56:20;2.90;;;1.30;;
80249;SDS011;69561;37.974;23.708;2023-04-25T10:58:49;4.03;;;1.40;;
80249;SDS011;69561;37.974;23.708;2023-04-25T11:01:15;3.70;;;1.30;;
80249;SDS011;69561;37.974;23.708;2023-04-25T11:03:45;1.58;;;1.30;;
80249;SDS011;69561;37.974;23.708;2023-04-25T11:09:02;1.60;;;1.08;;
80249;SDS011;69561;37.974;23.708;2023-04-25T11:11:33;2.85;;;1.20;;
80249;SDS011;69561;37.974;23.708;2023-04-25T11:14:01;6.72;;;1.00;;
80249;SDS011;69561;37.974;23.708;2023-04-25T11:16:27;2.97;;;1.63;;
80249;SDS011;69561;37.974;23.708;2023-04-25T11:18:53;2.80;;;1.10;;
80249;SDS011;69561;37.974;23.708;2023-04-25T11:21:22;1.90;;;1.38;;
80249;SDS011;69561;37.974;23.708;2023-04-25T11:23:47;2.40;;;1.30;;
80249;SDS011;69561;37.974;23.708;2023-04-25T11:26:13;5.60;;;1.27;;
80249;SDS011;69561;37.974;23.708;2023-04-25T11:28:40;0.85;;;0.85;;
80249;SDS011;69561;37.974;23.708;2023-04-25T11:31:05;3.97;;;1.20;;
80249;SDS011;69561;37.974;23.708;2023-04-25T11:33:31;2.40;;;1.13;;
80249;SDS011;69561;37.974;23.708;2023-04-25T11:35:57;2.45;;;1.10;;
80249;SDS011;69561;37.974;23.708;2023-04-25T11:38:24;3.10;;;1.25;;
80249;SDS011;69561;37.974;23.708;2023-04-25T11:40:51;2.38;;;1.10;;
80249;SDS011;69561;37.974;23.708;2023-04-25T11:43:20;2.38;;;0.95;;
80249;SDS011;69561;37.974;23.708;2023-04-25T11:45:49;2.35;;;0.90;;
80249;SDS011;69561;37.974;23.708;2023-04-25T11:48:15;2.03;;;0.93;;
80249;SDS011;69561;37.974;23.708;2023-04-25T11:50:42;3.00;;;1.00;;
80249;SDS011;69561;37.974;23.708;2023-04-25T11:53:07;3.10;;;1.10;;
80249;SDS011;69561;37.974;23.708;2023-04-25T11:55:33;2.30;;;1.20;;
80249;SDS011;69561;37.974;23.708;2023-04-25T11:58:00;1.30;;;1.00;;
80249;SDS011;69561;37.974;23.708;2023-04-25T12:00:27;2.90;;;1.05;;
80249;SDS011;69561;37.974;23.708;2023-04-25T12:02:53;3.80;;;1.10;;
80249;SDS011;69561;37.974;23.708;2023-04-25T12:05:20;1.58;;;0.90;;
80249;SDS011;69561;37.974;23.708;2023-04-25T12:07:48;4.20;;;1.10;;
80249;SDS011;69561;37.974;23.708;2023-04-25T12:10:15;2.80;;;1.08;;
80249;SDS011;69561;37.974;23.708;2023-04-25T12:12:42;2.65;;;1.10;;
80249;SDS011;69561;37.974;23.708;2023-04-25T12:17:48;5.97;;;1.00;;
80249;SDS011;69561;37.974;23.708;2023-04-25T12:20:16;2.58;;;1.10;;
80249;SDS011;69561;37.974;23.708;2023-04-25T12:22:45;1.20;;;0.90;;
80249;SDS011;69561;37.974;23.708;2023-04-25T12:25:17;8.55;;;1.25;;
80249;SDS011;69561;37.974;23.708;2023-04-25T12:36:01;4.90;;;1.42;;
80249;SDS011;69561;37.974;23.708;2023-04-25T12:38:39;1.77;;;1.20;;
80249;SDS011;69561;37.974;23.708;2023-04-25T12:41:06;3.23;;;1.17;;
80249;SDS011;69561;37.974;23.708;2023-04-25T12:43:33;5.53;;;1.25;;
80249;SDS011;69561;37.974;23.708;2023-04-25T12:45:59;4.88;;;1.20;;
80249;SDS011;69561;37.974;23.708;2023-04-25T12:48:25;6.07;;;1.50;;
80249;SDS011;69561;37.974;23.708;2023-04-25T12:50:51;4.13;;;1.20;;
80249;SDS011;69561;37.974;23.708;2023-04-25T12:53:18;1.38;;;1.10;;
80249;SDS011;69561;37.974;23.708;2023-04-25T12:55:45;5.57;;;1.10;;
80249;SDS011;69561;37.974;23.708;2023-04-25T12:58:17;2.97;;;1.25;;
80249;SDS011;69561;37.974;23.708;2023-04-25T13:00:43;4.85;;;1.10;;
80249;SDS011;69561;37.974;23.708;2023-04-25T13:03:10;1.70;;;1.00;;
80249;SDS011;69561;37.974;23.708;2023-04-25T13:05:37;2.90;;;1.20;;
80249;SDS011;69561;37.974;23.708;2023-04-25T13:08:03;2.13;;;1.05;;
80249;SDS011;69561;37.974;23.708;2023-04-25T13:10:29;1.42;;;1.17;;
80249;SDS011;69561;37.974;23.708;2023-04-25T13:12:55;3.78;;;1.20;;
80249;SDS011;69561;37.974;23.708;2023-04-25T13:15:21;1.40;;;0.90;;
80249;SDS011;69561;37.974;23.708;2023-04-25T13:17:48;2.45;;;1.00;;
80249;SDS011;69561;37.974;23.708;2023-04-25T13:20:13;2.60;;;1.02;;
80249;SDS011;69561;37.974;23.708;2023-04-25T13:22:40;1.73;;;1.10;;
80249;SDS011;69561;37.974;23.708;2023-04-25T13:25:07;3.05;;;1.20;;
80249;SDS011;69561;37.974;23.708;2023-04-25T13:27:33;4.72;;;1.13;;
80249;SDS011;69561;37.974;23.708;2023-04-25T13:30:00;1.80;;;1.10;;
80249;SDS011;69561;37.974;23.708;2023-04-25T13:35:02;2.88;;;1.13;;
80249;SDS011;69561;37.974;23.708;2023-04-25T13:37:28;2.50;;;1.20;;
80249;SDS011;69561;37.974;23.708;2023-04-25T13:39:55;1.65;;;1.50;;
80249;SDS011;69561;37.974;23.708;2023-04-25T13:42:21;6.40;;;1.20;;
80249;SDS011;69561;37.974;23.708;2023-04-25T13:44:48;1.33;;;1.23;;
80249;SDS011;69561;37.974;23.708;2023-04-25T13:47:14;1.40;;;1.15;;
80249;SDS011;69561;37.974;23.708;2023-04-25T13:49:39;3.53;;;1.20;;
80249;SDS011;69561;37.974;23.708;2023-04-25T13:52:05;1.48;;;1.10;;
80249;SDS011;69561;37.974;23.708;2023-04-25T13:54:31;2.53;;;1.13;;
80249;SDS011;69561;37.974;23.708;2023-04-25T13:56:57;2.65;;;1.00;;
80249;SDS011;69561;37.974;23.708;2023-04-25T13:59:24;1.60;;;1.05;;
80249;SDS011;69561;37.974;23.708;2023-04-25T14:01:50;2.38;;;0.95;;
80249;SDS011;69561;37.974;23.708;2023-04-25T14:04:16;2.17;;;1.27;;
80249;SDS011;69561;37.974;23.708;2023-04-25T14:06:42;1.58;;;1.30;;
80249;SDS011;69561;37.974;23.708;2023-04-25T14:09:08;2.75;;;1.20;;
80249;SDS011;69561;37.974;23.708;2023-04-25T14:11:38;6.00;;;1.00;;
80249;SDS011;69561;37.974;23.708;2023-04-25T14:14:04;1.67;;;0.98;;
80249;SDS011;69561;37.974;23.708;2023-04-25T14:16:30;1.27;;;0.90;;
80249;SDS011;69561;37.974;23.708;2023-04-25T14:18:59;1.60;;;1.00;;
80249;SDS011;69561;37.974;23.708;2023-04-25T14:21:25;1.98;;;1.30;;
80249;SDS011;69561;37.974;23.708;2023-04-25T14:23:51;1.73;;;1.30;;
80249;SDS011;69561;37.974;23.708;2023-04-25T14:26:17;1.40;;;1.30;;
80249;SDS011;69561;37.974;23.708;2023-04-25T14:28:43;1.70;;;1.20;;
80249;SDS011;69561;37.974;23.708;2023-04-25T14:31:09;1.83;;;1.30;;
80249;SDS011;69561;37.974;23.708;2023-04-25T14:33:35;4.45;;;1.30;;
80249;SDS011;69561;37.974;23.708;2023-04-25T14:36:02;1.67;;;1.13;;
80249;SDS011;69561;37.974;23.708;2023-04-25T14:38:28;1.40;;;1.30;;
80249;SDS011;69561;37.974;23.708;2023-04-25T14:40:54;2.33;;;1.13;;
80249;SDS011;69561;37.974;23.708;2023-04-25T14:43:19;1.58;;;1.10;;
80249;SDS011;69561;37.974;23.708;2023-04-25T14:45:45;1.60;;;1.30;;
80249;SDS011;69561;37.974;23.708;2023-04-25T14:48:11;3.75;;;1.33;;
80249;SDS011;69561;37.974;23.708;2023-04-25T14:50:37;3.63;;;0.90;;
80249;SDS011;69561;37.974;23.708;2023-04-25T14:53:02;1.23;;;1.10;;
80249;SDS011;69561;37.974;23.708;2023-04-25T14:55:29;2.13;;;1.17;;
80249;SDS011;69561;37.974;23.708;2023-04-25T14:57:54;1.95;;;0.95;;
80249;SDS011;69561;37.974;23.708;2023-04-25T15:00:20;4.75;;;1.50;;
80249;SDS011;69561;37.974;23.708;2023-04-25T15:02:50;1.73;;;1.48;;